Time;durP1;ratioP1;P1;durP2;ratioP2;P2;SDS_P1;SDS_P2;PMS_P1;PMS_P2;Temp;Humidity;BMP_temperature;BMP_pressure;BME280_temperature;BME280_humidity;BME280_pressure;Samples;Min_cycle;Max_cycle;Signal;HPM_P1;HPM_P2
2022/09/09 00:04:37;;;;;;;3.60;1.40;;;;;;;23.85;41.88;100694.16;16131712;19;129504;-60
2022/09/09 00:10:23;;;;;;;5.18;1.40;;;;;;;23.84;41.67;100691.63;16136914;19;129111;-60
2022/09/09 00:16:22;;;;;;;3.70;1.10;;;;;;;23.83;41.95;100679.63;16132936;19;129238;-60
2022/09/09 00:22:00;;;;;;;2.75;1.20;;;;;;;23.81;41.54;100691.13;16133555;19;130146;-60
2022/09/09 00:27:43;;;;;;;4.45;1.38;;;;;;;23.81;41.83;100693.06;16128236;19;129574;-60
2022/09/09 00:33:14;;;;;;;3.92;1.40;;;;;;;23.80;41.63;100680.22;16127150;19;129499;-60
2022/09/09 00:38:47;;;;;;;4.20;1.30;;;;;;;23.80;41.91;100683.00;16143918;19;129471;-60
2022/09/09 00:44:34;;;;;;;2.55;1.08;;;;;;;23.80;41.86;100691.38;16142420;19;129517;-60
2022/09/09 00:50:17;;;;;;;1.63;0.82;;;;;;;23.77;41.68;100677.97;16143012;19;129336;-60
2022/09/09 00:55:47;;;;;;;1.75;1.10;;;;;;;23.76;42.01;100673.50;16144665;19;129634;-60
2022/09/09 01:01:11;;;;;;;1.80;0.95;;;;;;;23.75;41.89;100666.28;16142196;19;129583;-60
2022/09/09 01:06:38;;;;;;;2.25;1.15;;;;;;;23.75;41.83;100655.13;16140751;19;129350;-60
2022/09/09 01:12:14;;;;;;;3.97;1.20;;;;;;;23.75;41.82;100650.34;16142280;19;134169;-60
2022/09/09 01:17:51;;;;;;;4.05;1.30;;;;;;;23.73;41.82;100651.78;16139705;19;130326;-60
2022/09/09 01:23:34;;;;;;;2.47;0.90;;;;;;;23.72;41.63;100645.34;16137570;19;129939;-60
2022/09/09 01:28:56;;;;;;;3.28;1.30;;;;;;;23.72;41.85;100636.13;16139887;19;129414;-60
2022/09/09 01:34:19;;;;;;;2.85;1.02;;;;;;;23.70;41.99;100636.41;16136398;19;129076;-60
2022/09/09 01:39:44;;;;;;;2.08;1.00;;;;;;;23.69;41.77;100633.91;16137853;19;129400;-60
2022/09/09 01:45:07;;;;;;;2.20;0.82;;;;;;;23.68;41.78;100621.06;16136924;19;129544;-60
2022/09/09 01:50:29;;;;;;;2.55;1.00;;;;;;;23.68;41.83;100621.91;16134762;19;129300;-60
2022/09/09 01:56:13;;;;;;;4.18;1.10;;;;;;;23.69;41.53;100622.75;16137185;19;129695;-60
2022/09/09 02:01:55;;;;;;;1.20;0.70;;;;;;;23.68;41.67;100615.47;16138890;19;130214;-60
2022/09/09 02:07:49;;;;;;;2.70;1.00;;;;;;;23.66;41.73;100618.56;16137699;19;129908;-60
2022/09/09 02:13:14;;;;;;;3.40;1.10;;;;;;;23.64;41.70;100607.69;16138619;19;129302;-60
2022/09/09 02:18:44;;;;;;;2.50;1.00;;;;;;;23.63;41.71;100603.22;16135086;19;129209;-60
2022/09/09 02:24:10;;;;;;;1.75;0.88;;;;;;;23.63;41.85;100608.78;16133758;19;129260;-61
2022/09/09 02:29:35;;;;;;;1.52;0.70;;;;;;;23.61;41.62;100597.09;16132735;19;129200;-60
2022/09/09 02:35:02;;;;;;;2.00;1.00;;;;;;;23.62;41.88;100597.94;16132670;19;129516;-60
2022/09/09 02:40:24;;;;;;;1.60;0.70;;;;;;;23.61;41.61;100604.63;16133098;19;129569;-60
2022/09/09 02:45:50;;;;;;;1.55;0.75;;;;;;;23.61;41.66;100602.69;16131298;19;129436;-60
2022/09/09 02:51:29;;;;;;;1.83;0.70;;;;;;;23.60;41.95;100605.75;16129160;19;129702;-61
2022/09/09 02:56:57;;;;;;;1.40;0.88;;;;;;;23.60;41.64;100597.38;16132155;19;129838;-60
2022/09/09 03:02:19;;;;;;;1.50;0.93;;;;;;;23.58;41.52;100600.47;16132641;19;129388;-60
2022/09/09 03:07:41;;;;;;;1.73;0.77;;;;;;;23.57;41.65;100609.94;16131130;19;131028;-60
2022/09/09 03:13:06;;;;;;;1.27;0.70;;;;;;;23.56;41.51;100602.69;16131189;19;129678;-61
2022/09/09 03:18:28;;;;;;;1.33;0.90;;;;;;;23.56;41.87;100607.44;16130195;19;129252;-61
2022/09/09 03:23:50;;;;;;;1.33;0.63;;;;;;;23.55;41.74;100609.38;16131406;19;130209;-61
2022/09/09 03:29:12;;;;;;;1.73;0.65;;;;;;;23.55;41.74;100594.59;16128549;19;129486;-60
2022/09/09 03:34:34;;;;;;;2.55;0.85;;;;;;;23.54;41.59;100599.31;16128121;19;128930;-60
2022/09/09 03:39:56;;;;;;;2.30;0.75;;;;;;;23.52;41.41;100593.19;16129010;19;129420;-61
2022/09/09 03:45:18;;;;;;;2.45;0.73;;;;;;;23.54;41.51;100592.94;16127891;19;129356;-60
2022/09/09 03:50:47;;;;;;;0.93;0.70;;;;;;;23.53;41.78;100586.50;16131051;19;129951;-60
2022/09/09 03:56:10;;;;;;;2.65;0.90;;;;;;;23.50;41.60;100585.13;16130159;19;130152;-60
2022/09/09 04:01:32;;;;;;;1.77;0.60;;;;;;;23.50;41.39;100587.09;16128651;19;130001;-60
2022/09/09 04:06:54;;;;;;;1.58;0.70;;;;;;;23.50;41.61;100584.31;16128191;19;129731;-60
2022/09/09 04:12:16;;;;;;;2.17;0.80;;;;;;;23.48;41.70;100584.56;16125950;19;130441;-60
2022/09/09 04:17:38;;;;;;;1.85;0.75;;;;;;;23.49;41.68;100582.63;16128719;19;130074;-60
2022/09/09 04:23:00;;;;;;;2.40;0.80;;;;;;;23.48;41.60;100567.81;16129244;19;134494;-60
2022/09/09 04:28:23;;;;;;;2.75;0.70;;;;;;;23.48;41.68;100562.22;16125179;19;129802;-60
2022/09/09 04:33:46;;;;;;;2.08;0.60;;;;;;;23.47;41.68;100554.16;16124767;19;129924;-60
2022/09/09 04:39:08;;;;;;;2.10;0.80;;;;;;;23.47;41.55;100551.38;16123714;19;130815;-61
2022/09/09 04:44:30;;;;;;;1.88;0.93;;;;;;;23.46;41.38;100546.91;16124878;19;129847;-60
2022/09/09 04:49:54;;;;;;;1.15;0.50;;;;;;;23.45;41.62;100548.84;16124964;19;130357;-60
2022/09/09 04:55:15;;;;;;;1.92;0.70;;;;;;;23.45;41.37;100550.81;16124172;19;129319;-60
2022/09/09 05:00:37;;;;;;;3.47;0.77;;;;;;;23.44;41.49;100549.13;16123177;19;129733;-60
2022/09/09 05:06:04;;;;;;;1.08;0.60;;;;;;;23.44;41.39;100560.31;16122761;19;129580;-60
2022/09/09 05:11:28;;;;;;;2.08;0.50;;;;;;;23.43;41.48;100561.44;16123148;19;131251;-61
2022/09/09 05:16:50;;;;;;;9.63;0.93;;;;;;;23.42;41.83;100556.97;16121207;19;129895;-60
2022/09/09 05:22:12;;;;;;;10.27;1.00;;;;;;;23.41;41.51;100567.31;16126836;19;129751;-61
2022/09/09 05:27:34;;;;;;;5.40;0.90;;;;;;;23.41;41.67;100564.53;16139694;19;129744;-60
2022/09/09 05:32:56;;;;;;;3.20;0.90;;;;;;;23.41;41.50;100558.09;16133744;19;129156;-60
2022/09/09 05:38:18;;;;;;;6.15;0.93;;;;;;;23.42;41.46;100557.81;16137126;19;129346;-60
2022/09/09 05:43:40;;;;;;;5.18;1.10;;;;;;;23.43;41.59;100553.91;16137919;19;131111;-61
2022/09/09 05:49:02;;;;;;;3.78;0.85;;;;;;;23.45;41.38;100561.97;16135418;19;129922;-60
2022/09/09 05:54:24;;;;;;;7.20;0.95;;;;;;;23.45;41.67;100551.63;16134681;19;130591;-62
2022/09/09 05:59:46;;;;;;;4.35;0.70;;;;;;;23.46;41.38;100544.94;16138810;19;130318;-60
2022/09/09 06:05:08;;;;;;;5.13;1.10;;;;;;;23.52;41.46;100542.94;16130162;19;130191;-60
2022/09/09 06:10:29;;;;;;;4.93;0.73;;;;;;;23.58;41.24;100541.81;16135250;19;131399;-60
2022/09/09 06:15:51;;;;;;;3.33;0.70;;;;;;;23.66;40.79;100544.00;16133467;19;131094;-62
2022/09/09 06:21:38;;;;;;;4.55;1.00;;;;;;;23.72;40.73;100549.56;16134433;19;129642;-62
2022/09/09 06:27:00;;;;;;;7.50;1.10;;;;;;;23.70;41.37;100561.00;16133094;19;130841;-61
2022/09/09 06:32:21;;;;;;;8.60;1.00;;;;;;;23.66;41.06;100557.97;16129800;19;129657;-62
2022/09/09 06:37:48;;;;;;;6.38;1.30;;;;;;;23.63;40.59;100547.34;16131761;19;129501;-62
2022/09/09 06:43:10;;;;;;;5.78;0.93;;;;;;;23.62;40.93;100540.13;16132732;19;129294;-62
2022/09/09 06:48:32;;;;;;;7.10;1.00;;;;;;;23.60;40.93;100547.97;16132335;19;129373;-62
2022/09/09 06:53:56;;;;;;;5.72;1.00;;;;;;;23.60;41.29;100547.09;16132034;19;129482;-62
2022/09/09 06:59:18;;;;;;;6.60;1.15;;;;;;;23.60;41.00;100550.75;16130551;19;129972;-61
2022/09/09 07:04:39;;;;;;;8.90;1.38;;;;;;;23.58;41.10;100547.41;16133984;19;129733;-61
2022/09/09 07:10:01;;;;;;;5.25;1.30;;;;;;;23.56;40.97;100546.84;16131210;19;130030;-61
2022/09/09 07:15:23;;;;;;;3.65;1.27;;;;;;;23.53;41.03;100536.22;16130602;19;129569;-62
2022/09/09 07:20:55;;;;;;;5.85;1.60;;;;;;;23.53;41.09;100539.03;16129994;19;129367;-62
2022/09/09 07:26:21;;;;;;;5.47;1.20;;;;;;;23.50;41.09;100542.41;16130475;19;129403;-62
2022/09/09 07:31:43;;;;;;;7.05;1.70;;;;;;;23.49;40.70;100544.34;16132221;19;129695;-62
2022/09/09 07:37:05;;;;;;;6.43;1.10;;;;;;;23.48;40.82;100539.06;16129690;19;130473;-62
2022/09/09 07:42:26;;;;;;;6.68;1.40;;;;;;;23.46;40.80;100542.13;16128570;19;129736;-62
2022/09/09 07:47:50;;;;;;;6.60;1.40;;;;;;;23.45;40.83;100542.44;16129290;19;129437;-62
2022/09/09 07:53:11;;;;;;;7.22;1.02;;;;;;;23.43;40.85;100553.91;16128286;19;130295;-62
2022/09/09 07:58:33;;;;;;;3.90;1.23;;;;;;;23.42;40.72;100552.22;16128703;19;129210;-62
2022/09/09 08:04:04;;;;;;;8.10;1.40;;;;;;;23.42;40.96;100552.22;16127541;19;129023;-61
2022/09/09 08:09:28;;;;;;;7.05;1.23;;;;;;;23.41;40.80;100555.28;16126733;19;129820;-62
2022/09/09 08:14:51;;;;;;;3.43;1.10;;;;;;;23.40;41.16;100542.47;16129800;19;129735;-63
2022/09/09 08:20:16;;;;;;;;;;;;;;;23.36;40.79;100550.56;16127752;19;129308;-64
2022/09/09 08:25:37;;;;;;;6.00;1.30;;;;;;;23.38;40.91;100550.31;16130606;19;129314;-72
2022/09/09 08:31:13;;;;;;;8.48;1.20;;;;;;;23.39;40.85;100547.22;16131014;19;129565;-71
2022/09/09 08:36:42;;;;;;;3.58;1.02;;;;;;;23.38;40.67;100556.72;16129673;19;131607;-72
2022/09/09 08:42:22;;;;;;;5.55;1.08;;;;;;;23.39;40.67;100565.91;16125716;19;129961;-72
2022/09/09 08:47:53;;;;;;;7.18;1.40;;;;;;;23.37;40.68;100563.41;16124588;19;129640;-62
2022/09/09 08:53:22;;;;;;;6.45;1.65;;;;;;;23.37;40.72;100577.38;16125201;19;129370;-62
2022/09/09 08:58:48;;;;;;;4.97;1.10;;;;;;;23.34;40.35;100570.41;16138188;19;129377;-62
2022/09/09 09:04:38;;;;;;;4.90;1.20;;;;;;;23.34;40.29;100577.94;16141621;19;129787;-62
2022/09/09 09:10:08;;;;;;;4.43;1.40;;;;;;;23.31;40.64;100586.91;16143677;19;129613;-62
2022/09/09 09:15:57;;;;;;;8.18;1.40;;;;;;;23.31;40.46;100584.94;16139859;19;129451;-62
2022/09/09 09:21:36;;;;;;;3.33;1.10;;;;;;;23.31;40.68;100589.69;16138036;19;129550;-62
2022/09/09 09:27:11;;;;;;;8.63;1.38;;;;;;;23.30;40.60;100597.22;16138925;19;129341;-62
2022/09/09 09:32:36;;;;;;;5.28;1.20;;;;;;;23.29;40.96;100592.75;16137669;19;129536;-62
2022/09/09 09:38:00;;;;;;;5.20;1.10;;;;;;;23.28;40.90;100602.25;16136458;19;130702;-62
2022/09/09 09:43:42;;;;;;;9.60;0.98;;;;;;;23.28;40.64;100607.84;16138028;19;129166;-62
2022/09/09 09:49:05;;;;;;;15.63;1.95;;;;;;;23.26;40.43;100610.09;16136230;19;129087;-61
2022/09/09 09:54:30;;;;;;;9.90;1.10;;;;;;;23.25;41.04;100602.84;16137777;19;129887;-62
2022/09/09 10:00:12;;;;;;;13.17;1.53;;;;;;;23.25;40.72;100602.84;16139805;19;129472;-62
2022/09/09 10:05:35;;;;;;;6.60;1.23;;;;;;;23.25;40.86;100599.19;16138443;19;129092;-62
2022/09/09 10:11:16;;;;;;;6.78;1.48;;;;;;;23.25;40.86;100596.41;16136166;19;129628;-62
2022/09/09 10:16:41;;;;;;;7.97;1.30;;;;;;;23.23;40.80;100605.09;16136190;19;129348;-62
2022/09/09 10:22:06;;;;;;;4.17;1.30;;;;;;;23.22;40.82;100608.13;16135744;19;129460;-61
2022/09/09 10:28:03;;;;;;;6.85;1.30;;;;;;;23.22;40.76;100603.41;16135136;19;129339;-62
2022/09/09 10:33:35;;;;;;;8.93;1.30;;;;;;;23.22;40.67;100602.56;16133707;19;129591;-61
2022/09/09 10:39:05;;;;;;;4.45;0.90;;;;;;;23.22;40.89;100600.63;16138154;19;129831;-62
2022/09/09 10:44:45;;;;;;;5.30;1.08;;;;;;;23.24;41.00;100609.53;16134315;19;129415;-62
2022/09/09 10:50:24;;;;;;;4.72;1.10;;;;;;;23.24;40.87;100614.28;16134111;19;129845;-62
2022/09/09 10:56:14;;;;;;;4.45;1.10;;;;;;;23.22;41.00;100603.41;16134107;19;129526;-62
2022/09/09 11:01:51;;;;;;;3.42;1.08;;;;;;;23.21;41.00;100607.31;16134409;19;129142;-62
2022/09/09 11:07:38;;;;;;;6.95;1.17;;;;;;;23.23;40.95;100605.09;16132800;19;129371;-62
2022/09/09 11:13:04;;;;;;;4.13;1.20;;;;;;;23.24;40.98;100614.28;16132543;19;129818;-62
2022/09/09 11:18:31;;;;;;;3.88;0.90;;;;;;;23.25;41.12;100619.59;16129245;19;129245;-62
2022/09/09 11:23:59;;;;;;;3.92;1.10;;;;;;;23.26;41.18;100612.88;16131354;19;129849;-62
2022/09/09 11:29:36;;;;;;;7.15;0.88;;;;;;;23.27;40.56;100606.16;16128920;19;129782;-62
2022/09/09 11:35:26;;;;;;;3.15;0.80;;;;;;;23.28;40.95;100607.00;16130105;19;129570;-62
2022/09/09 11:41:00;;;;;;;5.75;1.20;;;;;;;23.28;40.74;100602.25;16129766;19;129301;-62
2022/09/09 11:46:35;;;;;;;2.65;0.82;;;;;;;23.29;41.30;100608.69;16128743;19;129543;-62
2022/09/09 11:51:57;;;;;;;3.33;1.00;;;;;;;23.27;40.91;100606.16;16129691;19;131021;-62
2022/09/09 11:57:26;;;;;;;5.03;1.30;;;;;;;23.31;40.83;100606.44;16127818;19;129163;-62
2022/09/09 12:02:50;;;;;;;4.53;1.30;;;;;;;23.35;40.91;100601.94;16126871;19;129541;-62
2022/09/09 12:08:23;;;;;;;2.90;1.00;;;;;;;23.39;40.83;100596.63;16128531;19;130061;-62
2022/09/09 12:14:02;;;;;;;5.07;1.10;;;;;;;23.41;40.98;100598.03;16125330;19;130111;-62
2022/09/09 12:19:23;;;;;;;2.95;0.82;;;;;;;23.42;40.58;100596.03;16125009;19;129392;-62
2022/09/09 12:25:35;;;;;;;4.05;0.77;;;;;;;23.42;40.84;100601.63;16127418;19;129750;-62
2022/09/09 12:31:00;;;;;;;4.43;1.50;;;;;;;23.42;41.00;100596.03;16124890;19;129654;-62
2022/09/09 12:36:32;;;;;;;3.70;0.95;;;;;;;23.46;40.56;100597.16;16122654;19;130157;-62
2022/09/09 12:41:57;;;;;;;3.53;0.88;;;;;;;23.46;40.54;100597.16;16125059;19;130911;-62
2022/09/09 12:47:25;;;;;;;3.05;1.02;;;;;;;23.48;40.55;100606.09;16123984;19;129233;-62
2022/09/09 12:52:54;;;;;;;4.30;1.08;;;;;;;23.49;40.60;100591.00;16124011;19;129469;-62
2022/09/09 12:58:18;;;;;;;3.00;1.00;;;;;;;23.49;40.50;100596.59;16125592;19;129538;-62
2022/09/09 13:03:47;;;;;;;4.23;0.83;;;;;;;23.50;40.40;100603.84;16125421;19;130973;-62
2022/09/09 13:09:09;;;;;;;8.52;1.00;;;;;;;23.47;40.41;100593.25;16124604;19;129357;-62
2022/09/09 13:14:37;;;;;;;5.70;1.23;;;;;;;23.45;40.39;100601.88;16124864;19;130473;-62
2022/09/09 13:19:58;;;;;;;3.88;0.82;;;;;;;23.46;40.46;100597.16;16126451;19;129096;-62
2022/09/09 13:25:25;;;;;;;4.20;1.13;;;;;;;23.46;40.47;100595.19;16122528;19;129937;-61
2022/09/09 13:30:59;;;;;;;19.50;1.88;;;;;;;23.47;40.47;100598.81;16123398;19;129334;-63
2022/09/09 13:36:31;;;;;;;5.10;0.80;;;;;;;23.47;40.09;100588.47;16121073;19;129174;-63
2022/09/09 13:41:53;;;;;;;5.78;1.02;;;;;;;23.48;40.55;100586.53;16127572;19;129380;-63
2022/09/09 13:47:19;;;;;;;5.28;0.88;;;;;;;23.48;40.44;100592.13;16137911;19;133490;-63
2022/09/09 13:52:41;;;;;;;7.63;0.80;;;;;;;23.49;40.68;100591.00;16136931;19;129559;-63
2022/09/09 13:58:05;;;;;;;4.55;0.80;;;;;;;23.49;40.24;100585.41;16135458;19;129257;-63
2022/09/09 14:03:26;;;;;;;4.80;0.75;;;;;;;23.48;40.15;100583.75;16131301;19;129494;-63
2022/09/09 14:08:51;;;;;;;4.70;1.00;;;;;;;23.48;40.82;100594.91;16134966;19;129333;-63
2022/09/09 14:14:13;;;;;;;3.80;0.77;;;;;;;23.48;40.28;100600.50;16134234;19;129263;-64
2022/09/09 14:19:36;;;;;;;3.67;0.90;;;;;;;23.48;40.41;100604.09;16135321;19;133807;-63
2022/09/09 14:24:58;;;;;;;2.63;0.77;;;;;;;23.47;40.50;100623.94;16132345;19;129652;-63
2022/09/09 14:30:20;;;;;;;3.65;0.85;;;;;;;23.47;40.48;100599.66;16134153;19;132929;-63
2022/09/09 14:35:42;;;;;;;11.30;1.20;;;;;;;23.47;40.43;100598.81;16131743;19;129609;-64
2022/09/09 14:41:16;;;;;;;3.83;1.30;;;;;;;23.47;40.39;100596.03;16134401;19;129716;-64
2022/09/09 14:46:38;;;;;;;4.43;1.13;;;;;;;23.48;40.62;100600.50;16140517;19;129771;-64
2022/09/09 14:52:00;;;;;;;3.63;0.63;;;;;;;23.49;40.32;100596.59;16135698;19;130609;-63
2022/09/09 14:57:21;;;;;;;1.55;0.68;;;;;;;23.49;40.39;100591.00;16130850;19;129819;-63
2022/09/09 15:02:43;;;;;;;5.43;0.90;;;;;;;23.48;40.38;100597.69;16132530;19;129660;-63
2022/09/09 15:08:05;;;;;;;3.17;0.90;;;;;;;23.50;40.64;100584.31;16131370;19;131000;-63
2022/09/09 15:13:27;;;;;;;2.53;0.73;;;;;;;23.49;40.48;100591.00;16122400;19;129429;-63
2022/09/09 15:18:53;;;;;;;4.80;0.68;;;;;;;23.49;40.42;100585.41;16125344;19;129598;-64
2022/09/09 15:24:17;;;;;;;2.55;0.70;;;;;;;23.46;40.22;100591.56;16121958;19;130382;-64
2022/09/09 15:29:42;;;;;;;1.80;0.68;;;;;;;23.42;40.50;100590.47;16129738;19;129557;-63
2022/09/09 15:35:04;;;;;;;4.95;0.95;;;;;;;23.38;40.62;100609.75;16129529;19;130913;-63
2022/09/09 15:40:26;;;;;;;1.98;0.63;;;;;;;23.37;40.87;100622.03;16124453;19;130475;-63
2022/09/09 15:45:56;;;;;;;24.30;2.05;;;;;;;23.34;40.62;100628.19;16127367;19;130236;-64
2022/09/09 15:51:18;;;;;;;6.00;0.95;;;;;;;23.30;40.53;100636.28;16127530;19;130602;-63
2022/09/09 15:57:03;;;;;;;9.30;1.50;;;;;;;23.29;41.13;100636.59;16128426;19;130261;-63
2022/09/09 16:02:25;;;;;;;11.05;0.98;;;;;;;23.27;40.98;100645.22;16125013;19;129559;-62
2022/09/09 16:07:47;;;;;;;7.55;0.73;;;;;;;23.26;41.05;100643.59;16123211;19;129941;-64
2022/09/09 16:13:09;;;;;;;10.80;1.35;;;;;;;23.24;41.13;100643.03;16123406;19;129356;-65
2022/09/09 16:18:42;;;;;;;5.68;1.00;;;;;;;23.22;41.60;100648.06;16122965;19;129544;-65
2022/09/09 16:24:07;;;;;;;10.18;1.40;;;;;;;23.19;41.51;100659.78;16125870;19;129634;-63
2022/09/09 16:29:29;;;;;;;7.35;1.50;;;;;;;23.18;41.58;100663.69;16126452;19;130166;-66
2022/09/09 16:34:51;;;;;;;9.20;1.30;;;;;;;23.21;41.35;100668.72;16127401;19;129790;-66
2022/09/09 16:40:12;;;;;;;7.60;1.75;;;;;;;23.22;41.49;100664.81;16126868;19;129025;-62
2022/09/09 16:45:41;;;;;;;9.38;1.50;;;;;;;23.25;41.65;100672.63;16128914;19;130164;-62
2022/09/09 16:51:11;;;;;;;7.43;1.40;;;;;;;23.26;41.52;100677.09;16124516;19;129734;-63
2022/09/09 16:56:36;;;;;;;5.97;1.48;;;;;;;23.27;41.67;100689.88;16125018;19;129359;-63
2022/09/09 17:01:58;;;;;;;9.23;1.90;;;;;;;23.27;41.78;100706.63;16125930;19;130280;-63
2022/09/09 17:07:20;;;;;;;5.80;1.25;;;;;;;23.28;42.33;100708.31;16123202;19;130585;-63
2022/09/09 17:12:42;;;;;;;6.78;1.70;;;;;;;23.28;42.56;100719.47;16125604;19;129692;-63
2022/09/09 17:18:04;;;;;;;11.73;1.67;;;;;;;23.30;42.73;100710.84;16133118;19;129933;-63
2022/09/09 17:23:27;;;;;;;13.23;1.48;;;;;;;23.30;43.11;100717.25;16136688;19;130305;-65
2022/09/09 17:28:49;;;;;;;7.75;1.40;;;;;;;23.33;42.94;100727.00;16128960;19;130565;-63
2022/09/09 17:34:10;;;;;;;11.00;1.90;;;;;;;23.34;42.99;100726.72;16135596;19;129522;-62
2022/09/09 17:39:32;;;;;;;17.58;1.50;;;;;;;23.35;43.13;100721.97;16138683;19;129414;-60
2022/09/09 17:44:54;;;;;;;19.27;1.80;;;;;;;23.36;43.06;100723.66;16138829;19;129810;-68
2022/09/09 17:50:17;;;;;;;10.93;1.58;;;;;;;23.38;43.05;100723.38;16138461;19;129829;-66
2022/09/09 17:55:39;;;;;;;52.30;3.17;;;;;;;23.37;43.59;100716.94;16140447;19;129530;-52
2022/09/09 18:01:05;;;;;;;11.80;1.85;;;;;;;23.38;43.56;100717.78;16138299;19;130144;-62
2022/09/09 18:06:30;;;;;;;11.07;1.50;;;;;;;23.37;43.37;100719.72;16129750;19;130901;-60
2022/09/09 18:11:55;;;;;;;18.27;1.67;;;;;;;23.36;43.22;100732.03;16138626;19;129632;-62
2022/09/09 18:17:16;;;;;;;6.00;1.43;;;;;;;23.34;42.91;100735.09;16137134;19;130710;-64
2022/09/09 18:22:38;;;;;;;6.88;1.77;;;;;;;23.34;43.63;100737.03;16142295;19;129423;-64
2022/09/09 18:28:00;;;;;;;9.18;1.40;;;;;;;23.33;43.29;100744.59;16136734;19;130515;-66
2022/09/09 18:33:22;;;;;;;8.18;1.38;;;;;;;23.33;43.25;100750.19;16134857;19;129435;-66
2022/09/09 18:38:44;;;;;;;6.72;1.02;;;;;;;23.32;43.33;100754.09;16134111;19;129617;-65
2022/09/09 18:44:15;;;;;;;10.35;1.58;;;;;;;23.34;43.20;100765.81;16135381;19;129485;-65
2022/09/09 18:49:37;;;;;;;6.22;1.48;;;;;;;23.33;43.29;100778.09;16136186;19;129582;-59
2022/09/09 18:54:58;;;;;;;4.50;1.15;;;;;;;23.31;43.29;100788.69;16135736;19;129988;-60
2022/09/09 19:00:20;;;;;;;4.88;1.30;;;;;;;23.33;43.27;100789.25;16130083;19;133777;-64
2022/09/09 19:05:42;;;;;;;6.38;1.30;;;;;;;23.32;43.24;100784.78;16134046;19;129552;-62
2022/09/09 19:11:08;;;;;;;6.97;1.42;;;;;;;23.30;43.30;100795.41;16130292;19;129670;-59
2022/09/09 19:16:33;;;;;;;7.38;1.70;;;;;;;23.31;43.41;100797.06;16130501;19;129388;-56
2022/09/09 19:21:56;;;;;;;5.60;1.48;;;;;;;23.32;43.35;100809.09;16131249;19;129506;-62
2022/09/09 19:27:18;;;;;;;3.22;1.10;;;;;;;23.31;43.24;100804.63;16130588;19;129590;-65
2022/09/09 19:32:40;;;;;;;3.95;1.38;;;;;;;23.30;43.19;100808.53;16128640;19;129746;-66
2022/09/09 19:38:17;;;;;;;4.57;0.90;;;;;;;23.30;42.82;100819.69;16129261;19;129269;-61
2022/09/09 19:43:39;;;;;;;8.52;1.40;;;;;;;23.30;43.43;100828.06;16131300;19;129965;-63
2022/09/09 19:49:03;;;;;;;6.57;1.27;;;;;;;23.30;43.55;100830.84;16127734;19;129038;-64
2022/09/09 19:54:25;;;;;;;23.08;1.90;;;;;;;23.31;43.25;100836.16;16125256;19;129101;-59
2022/09/09 19:59:46;;;;;;;14.95;1.65;;;;;;;23.33;43.32;100847.88;16129054;19;129525;-59
2022/09/09 20:05:08;;;;;;;10.43;1.42;;;;;;;23.33;43.12;100852.59;16126189;19;129475;-59
2022/09/09 20:10:30;;;;;;;6.72;1.20;;;;;;;23.31;42.99;100847.31;16128523;19;129860;-59
2022/09/09 20:16:04;;;;;;;7.20;1.10;;;;;;;23.30;43.08;100856.81;16127821;19;130000;-59
2022/09/09 20:21:32;;;;;;;4.95;1.10;;;;;;;23.28;42.94;100859.03;16125259;19;129144;-59
2022/09/09 20:26:55;;;;;;;5.78;1.10;;;;;;;23.27;43.01;100857.34;16126626;19;128897;-59
2022/09/09 20:32:16;;;;;;;3.13;0.93;;;;;;;23.26;43.15;100852.06;16128359;19;130577;-59
2022/09/09 20:37:41;;;;;;;6.40;1.33;;;;;;;23.24;42.95;100852.34;16126353;19;130586;-59
2022/09/09 20:43:03;;;;;;;2.67;0.70;;;;;;;23.22;43.29;100843.41;16124891;19;129978;-59
2022/09/09 20:48:26;;;;;;;5.18;1.15;;;;;;;23.21;42.79;100852.91;16125030;19;129790;-59
2022/09/09 20:53:56;;;;;;;5.90;1.00;;;;;;;23.20;42.98;100845.66;16134544;19;130534;-59
2022/09/09 20:59:20;;;;;;;5.63;1.20;;;;;;;23.18;42.94;100854.31;16139196;19;130685;-59
2022/09/09 21:04:43;;;;;;;2.57;1.00;;;;;;;23.17;43.00;100868.53;16141210;19;129851;-59
2022/09/09 21:10:05;;;;;;;5.43;0.90;;;;;;;23.15;43.01;100860.44;16140216;19;129807;-59
2022/09/09 21:15:27;;;;;;;4.00;1.00;;;;;;;23.15;43.14;100854.00;16137957;19;130063;-59
2022/09/09 21:20:49;;;;;;;4.88;1.42;;;;;;;23.13;43.31;100864.63;16137084;19;129412;-59
2022/09/09 21:26:11;;;;;;;5.35;1.20;;;;;;;23.12;42.87;100854.59;16140177;19;130633;-59
2022/09/09 21:31:33;;;;;;;4.93;1.30;;;;;;;23.10;42.80;100851.25;16135896;19;129496;-59
2022/09/09 21:36:55;;;;;;;6.47;1.30;;;;;;;23.05;42.80;100838.94;16136905;19;134306;-59
2022/09/09 21:42:17;;;;;;;4.25;0.95;;;;;;;23.05;42.88;100852.06;16138955;19;130028;-59
2022/09/09 21:47:45;;;;;;;4.18;1.00;;;;;;;23.05;42.88;100858.47;16138398;19;129025;-59
2022/09/09 21:53:08;;;;;;;4.82;1.00;;;;;;;23.03;42.52;100857.91;16135490;19;129305;-59
2022/09/09 21:58:30;;;;;;;4.13;1.10;;;;;;;23.02;42.45;100859.03;16138701;19;129666;-59
2022/09/09 22:03:52;;;;;;;4.68;0.75;;;;;;;23.02;42.41;100856.25;16136861;19;129597;-59
2022/09/09 22:09:14;;;;;;;3.53;1.08;;;;;;;23.00;42.32;100847.34;16136663;19;129406;-59
2022/09/09 22:14:36;;;;;;;7.55;1.35;;;;;;;23.00;42.40;100858.50;16133596;19;130403;-59
2022/09/09 22:19:58;;;;;;;3.70;1.02;;;;;;;22.99;42.43;100865.19;16135881;19;129063;-59
2022/09/09 22:25:19;;;;;;;4.68;0.90;;;;;;;22.99;42.38;100864.34;16134615;19;129422;-59
2022/09/09 22:30:41;;;;;;;3.53;1.23;;;;;;;22.99;42.37;100864.34;16133124;19;129223;-59
2022/09/09 22:36:03;;;;;;;3.45;0.90;;;;;;;22.98;42.70;100859.88;16133847;19;129282;-59
2022/09/09 22:41:25;;;;;;;2.88;1.05;;;;;;;22.97;42.31;100847.88;16133871;19;129414;-59
2022/09/09 22:46:47;;;;;;;3.63;0.93;;;;;;;22.96;42.47;100850.94;16137130;19;129269;-59
2022/09/09 22:52:10;;;;;;;4.00;0.98;;;;;;;22.96;42.09;100859.31;16132020;19;129482;-59
2022/09/09 22:57:31;;;;;;;2.20;0.80;;;;;;;22.95;42.35;100855.69;16132836;19;129487;-58
2022/09/09 23:02:54;;;;;;;5.95;1.60;;;;;;;22.95;42.60;100860.44;16132539;19;129934;-58
2022/09/09 23:08:17;;;;;;;3.67;1.02;;;;;;;22.94;42.19;100864.34;16131357;19;130086;-59
2022/09/09 23:13:41;;;;;;;3.28;0.88;;;;;;;22.93;42.37;100863.50;16130410;19;129497;-59
2022/09/09 23:19:07;;;;;;;3.73;0.90;;;;;;;22.92;42.55;100859.03;16131327;19;129456;-58
2022/09/09 23:24:28;;;;;;;;;;;;;;;22.87;42.47;100857.03;16129228;19;130276;-59
2022/09/09 23:29:50;;;;;;;2.17;0.70;;;;;;;22.91;42.14;100862.09;16128941;19;129177;-59
2022/09/09 23:35:12;;;;;;;2.05;1.00;;;;;;;22.89;42.33;100870.72;16126954;19;129818;-58
2022/09/09 23:40:34;;;;;;;7.78;1.15;;;;;;;22.87;42.02;100861.78;16130420;19;129737;-59
2022/09/09 23:45:56;;;;;;;4.47;0.85;;;;;;;22.87;42.24;100856.22;16129885;19;129694;-59
2022/09/09 23:51:22;;;;;;;3.10;1.00;;;;;;;22.87;42.20;100853.44;16128175;19;129424;-59
2022/09/09 23:56:44;;;;;;;4.55;0.90;;;;;;;22.85;42.23;100861.22;16130322;19;129563;-59
